Time;durP1;ratioP1;P1;durP2;ratioP2;P2;SDS_P1;SDS_P2;PMS_P1;PMS_P2;Temp;Humidity;BMP_temperature;BMP_pressure;BME280_temperature;BME280_humidity;BME280_pressure;Samples;Min_cycle;Max_cycle;Signal;HPM_P1;HPM_P2
2021/05/29 00:00:49;;;;;;;8.52;4.20;;;;;;;;;;5030317;28;20033;-83
2021/05/29 00:03:15;;;;;;;6.50;4.28;;;;;;;;;;5029286;28;20474;-83
2021/05/29 00:05:41;;;;;;;7.97;4.50;;;;;;;;;;5029623;28;20033;-83
2021/05/29 00:08:08;;;;;;;7.53;4.25;;;;;;;;;;5031894;28;20427;-83
2021/05/29 00:10:34;;;;;;;6.72;3.95;;;;;;;;;;5027249;28;20081;-83
2021/05/29 00:13:00;;;;;;;5.47;3.70;;;;;;;;;;5028418;28;20025;-83
2021/05/29 00:15:27;;;;;;;8.05;3.85;;;;;;;;;;5034602;28;20048;-83
2021/05/29 00:17:54;;;;;;;7.85;3.80;;;;;;;;;;5039914;28;20382;-82
2021/05/29 00:20:20;;;;;;;7.85;4.13;;;;;;;;;;5031731;28;20536;-83
2021/05/29 00:22:46;;;;;;;6.50;3.97;;;;;;;;;;5029477;28;20497;-83
2021/05/29 00:25:12;;;;;;;8.00;4.32;;;;;;;;;;5029594;28;20025;-83
2021/05/29 00:27:38;;;;;;;8.52;4.20;;;;;;;;;;5030419;28;20463;-83
2021/05/29 00:30:05;;;;;;;10.15;4.25;;;;;;;;;;5030126;28;20024;-83
2021/05/29 00:32:31;;;;;;;9.52;4.38;;;;;;;;;;5030260;28;20033;-83
2021/05/29 00:34:57;;;;;;;9.43;4.90;;;;;;;;;;5032171;28;20021;-83
2021/05/29 00:37:23;;;;;;;7.38;4.35;;;;;;;;;;5026928;28;20031;-83
2021/05/29 00:39:49;;;;;;;7.25;4.13;;;;;;;;;;5031984;28;20666;-83
2021/05/29 00:42:15;;;;;;;7.93;4.75;;;;;;;;;;5044316;28;20030;-83
2021/05/29 00:44:48;;;;;;;7.75;4.80;;;;;;;;;;5033108;28;20410;-83
2021/05/29 00:47:17;;;;;;;6.45;4.22;;;;;;;;;;5032279;28;20384;-83
2021/05/29 00:49:43;;;;;;;9.35;4.30;;;;;;;;;;5031869;28;20021;-83
2021/05/29 00:52:09;;;;;;;7.93;4.80;;;;;;;;;;5025036;28;20385;-84
2021/05/29 00:54:35;;;;;;;9.95;5.00;;;;;;;;;;5032792;28;20034;-83
2021/05/29 00:57:01;;;;;;;6.78;4.50;;;;;;;;;;5033497;28;20101;-83
2021/05/29 00:59:27;;;;;;;6.60;4.60;;;;;;;;;;5033069;28;20026;-83
2021/05/29 01:01:53;;;;;;;9.85;4.57;;;;;;;;;;5039649;28;20084;-83
2021/05/29 01:04:19;;;;;;;8.80;4.28;;;;;;;;;;5036419;28;20030;-83
2021/05/29 01:06:45;;;;;;;6.72;4.05;;;;;;;;;;5039159;28;20168;-84
2021/05/29 01:09:11;;;;;;;7.97;4.38;;;;;;;;;;5032836;28;20052;-83
2021/05/29 01:11:37;;;;;;;5.55;4.00;;;;;;;;;;5029331;28;20033;-83
2021/05/29 01:14:03;;;;;;;6.35;3.97;;;;;;;;;;5030654;28;20017;-83
2021/05/29 01:19:05;;;;;;;7.60;4.70;;;;;;;;;;5034477;28;20029;-83
2021/05/29 01:21:31;;;;;;;9.20;4.68;;;;;;;;;;5028868;28;20038;-83
2021/05/29 01:23:57;;;;;;;8.75;4.05;;;;;;;;;;5028168;28;20017;-83
2021/05/29 01:26:24;;;;;;;6.60;3.78;;;;;;;;;;5028184;28;20088;-83
2021/05/29 01:28:54;;;;;;;6.90;4.90;;;;;;;;;;5032303;28;20017;-83
2021/05/29 01:31:25;;;;;;;7.40;5.28;;;;;;;;;;5035318;28;20017;-83
2021/05/29 01:33:54;;;;;;;9.27;4.80;;;;;;;;;;5029702;28;20021;-82
2021/05/29 01:36:21;;;;;;;8.55;5.00;;;;;;;;;;5028999;28;20080;-83
2021/05/29 01:38:47;;;;;;;10.13;4.90;;;;;;;;;;5029610;28;20032;-83
2021/05/29 01:41:14;;;;;;;10.88;4.47;;;;;;;;;;5029320;28;20045;-83
2021/05/29 01:43:42;;;;;;;7.47;4.78;;;;;;;;;;5017008;28;20152;-83
2021/05/29 01:46:09;;;;;;;8.63;4.30;;;;;;;;;;5027226;28;20037;-83
2021/05/29 01:48:44;;;;;;;11.95;4.65;;;;;;;;;;5030821;28;20104;-83
2021/05/29 01:51:10;;;;;;;7.80;4.68;;;;;;;;;;5041757;28;20558;-83
2021/05/29 01:53:37;;;;;;;9.50;5.22;;;;;;;;;;5032577;28;20048;-83
2021/05/29 01:56:04;;;;;;;7.97;5.10;;;;;;;;;;5039645;28;20116;-83
2021/05/29 01:58:30;;;;;;;7.68;4.63;;;;;;;;;;5038724;28;20032;-83
2021/05/29 02:00:56;;;;;;;6.55;4.60;;;;;;;;;;5032241;28;20116;-83
2021/05/29 02:03:22;;;;;;;6.28;4.30;;;;;;;;;;5040547;28;20072;-83
2021/05/29 02:05:48;;;;;;;7.55;4.60;;;;;;;;;;5030910;28;20033;-83
2021/05/29 02:08:14;;;;;;;8.43;4.53;;;;;;;;;;5039537;28;20061;-82
2021/05/29 02:10:42;;;;;;;8.35;5.20;;;;;;;;;;5036922;28;20063;-82
2021/05/29 02:13:12;;;;;;;7.47;4.75;;;;;;;;;;5033733;28;20033;-83
2021/05/29 02:15:40;;;;;;;7.78;4.72;;;;;;;;;;5030970;28;20022;-83
2021/05/29 02:18:08;;;;;;;8.07;4.37;;;;;;;;;;5034830;28;20037;-83
2021/05/29 02:20:42;;;;;;;8.02;4.53;;;;;;;;;;5031414;28;20305;-83
2021/05/29 02:23:08;;;;;;;7.90;4.00;;;;;;;;;;5044557;28;20026;-82
2021/05/29 02:25:34;;;;;;;8.57;4.45;;;;;;;;;;5046447;28;20029;-83
2021/05/29 02:28:01;;;;;;;7.95;4.90;;;;;;;;;;5030803;28;20524;-83
2021/05/29 02:30:27;;;;;;;7.22;4.70;;;;;;;;;;5031394;28;20029;-83
2021/05/29 02:32:53;;;;;;;9.40;5.07;;;;;;;;;;5032333;28;20465;-83
2021/05/29 02:35:19;;;;;;;8.02;5.25;;;;;;;;;;5037762;28;20037;-83
2021/05/29 02:37:45;;;;;;;8.30;5.18;;;;;;;;;;5048144;28;20025;-83
2021/05/29 02:40:12;;;;;;;7.22;4.72;;;;;;;;;;5037800;28;20029;-83
2021/05/29 02:42:38;;;;;;;8.00;4.70;;;;;;;;;;5033371;28;20090;-83
2021/05/29 02:45:05;;;;;;;10.20;5.13;;;;;;;;;;5039210;28;20037;-82
2021/05/29 02:47:31;;;;;;;7.82;4.72;;;;;;;;;;5034525;28;20077;-83
2021/05/29 02:49:57;;;;;;;6.40;4.45;;;;;;;;;;5036927;28;20493;-83
2021/05/29 02:52:23;;;;;;;8.55;5.30;;;;;;;;;;5029348;28;20094;-82
2021/05/29 02:54:49;;;;;;;8.02;4.95;;;;;;;;;;5031921;28;20117;-83
2021/05/29 02:57:15;;;;;;;10.57;5.20;;;;;;;;;;5031429;28;20017;-83
2021/05/29 02:59:41;;;;;;;7.38;5.25;;;;;;;;;;5030947;28;20048;-83
2021/05/29 03:02:09;;;;;;;6.85;4.88;;;;;;;;;;5036861;28;20121;-83
2021/05/29 03:04:35;;;;;;;7.93;4.70;;;;;;;;;;5041490;28;20021;-83
2021/05/29 03:07:01;;;;;;;10.13;5.05;;;;;;;;;;5030872;28;20040;-83
2021/05/29 03:09:28;;;;;;;8.77;5.07;;;;;;;;;;5034526;28;20034;-83
2021/05/29 03:11:54;;;;;;;8.55;4.82;;;;;;;;;;5038357;28;20057;-83
2021/05/29 03:14:20;;;;;;;7.35;5.13;;;;;;;;;;5032452;28;20033;-83
2021/05/29 03:16:46;;;;;;;8.95;5.10;;;;;;;;;;5031545;28;20022;-83
2021/05/29 03:19:12;;;;;;;8.50;5.22;;;;;;;;;;5044825;28;20033;-82
2021/05/29 03:21:38;;;;;;;8.93;4.68;;;;;;;;;;5031147;28;20450;-83
2021/05/29 03:24:04;;;;;;;8.02;5.68;;;;;;;;;;5031256;28;20084;-83
2021/05/29 03:26:30;;;;;;;10.02;5.35;;;;;;;;;;5033733;28;20443;-83
2021/05/29 03:28:56;;;;;;;7.60;5.07;;;;;;;;;;5032452;28;20512;-84
2021/05/29 03:31:22;;;;;;;7.50;5.22;;;;;;;;;;5032479;28;20171;-83
2021/05/29 03:33:48;;;;;;;9.05;4.90;;;;;;;;;;5041569;28;20060;-83
2021/05/29 03:36:14;;;;;;;8.43;4.95;;;;;;;;;;5033045;28;20104;-83
2021/05/29 03:38:41;;;;;;;6.65;4.70;;;;;;;;;;5035959;28;20049;-83
2021/05/29 03:41:07;;;;;;;8.43;4.93;;;;;;;;;;5032412;28;20037;-83
2021/05/29 03:43:33;;;;;;;9.65;5.15;;;;;;;;;;5044295;28;20029;-83
2021/05/29 03:46:00;;;;;;;7.70;4.68;;;;;;;;;;5029392;28;20834;-83
2021/05/29 03:48:26;;;;;;;6.30;4.55;;;;;;;;;;5035463;28;20025;-83
2021/05/29 03:50:52;;;;;;;9.52;4.57;;;;;;;;;;5031146;28;20039;-83
2021/05/29 03:53:18;;;;;;;7.80;4.20;;;;;;;;;;5033115;28;20056;-83
2021/05/29 03:55:44;;;;;;;9.40;5.15;;;;;;;;;;5034177;28;20025;-83
2021/05/29 03:58:10;;;;;;;10.93;4.40;;;;;;;;;;5030555;28;20081;-84
2021/05/29 04:00:36;;;;;;;6.10;4.15;;;;;;;;;;5034125;28;20045;-84
2021/05/29 04:03:02;;;;;;;7.32;4.90;;;;;;;;;;5045191;28;20036;-83
2021/05/29 04:05:28;;;;;;;7.03;4.65;;;;;;;;;;5035149;28;20032;-83
2021/05/29 04:07:54;;;;;;;11.27;5.00;;;;;;;;;;5039766;28;20105;-83
2021/05/29 04:10:24;;;;;;;7.97;5.32;;;;;;;;;;5041168;28;20046;-83
2021/05/29 04:12:52;;;;;;;7.25;4.85;;;;;;;;;;5031827;28;20065;-83
2021/05/29 04:15:18;;;;;;;8.07;5.10;;;;;;;;;;5031350;28;20532;-84
2021/05/29 04:17:45;;;;;;;10.60;4.97;;;;;;;;;;5029204;28;20026;-84
2021/05/29 04:20:11;;;;;;;8.38;4.50;;;;;;;;;;5030226;28;20041;-83
2021/05/29 04:22:37;;;;;;;6.65;4.80;;;;;;;;;;5032384;28;20108;-83
2021/05/29 04:25:08;;;;;;;7.28;4.55;;;;;;;;;;5033514;28;20471;-83
2021/05/29 04:27:34;;;;;;;8.00;4.88;;;;;;;;;;5032384;28;20057;-83
2021/05/29 04:30:00;;;;;;;10.73;4.93;;;;;;;;;;5029963;28;20010;-83
2021/05/29 04:32:26;;;;;;;7.63;5.00;;;;;;;;;;5031986;28;20021;-84
2021/05/29 04:34:52;;;;;;;7.15;4.72;;;;;;;;;;5031711;28;20064;-84
2021/05/29 04:37:18;;;;;;;7.93;4.60;;;;;;;;;;5032350;28;20489;-84
2021/05/29 04:39:45;;;;;;;6.43;4.35;;;;;;;;;;5030105;28;20036;-83
2021/05/29 04:42:11;;;;;;;7.20;4.78;;;;;;;;;;5032017;28;20047;-82
2021/05/29 04:44:37;;;;;;;7.30;4.60;;;;;;;;;;5041616;28;20022;-83
2021/05/29 04:47:03;;;;;;;8.85;4.80;;;;;;;;;;5035736;28;20029;-83
2021/05/29 04:49:30;;;;;;;8.90;4.63;;;;;;;;;;5034006;28;20025;-83
2021/05/29 04:51:56;;;;;;;6.80;5.20;;;;;;;;;;5030847;28;20450;-83
2021/05/29 04:54:22;;;;;;;8.32;4.82;;;;;;;;;;5029641;28;20079;-84
2021/05/29 04:56:48;;;;;;;9.52;5.20;;;;;;;;;;5039673;28;20025;-83
2021/05/29 04:59:14;;;;;;;9.38;4.93;;;;;;;;;;5030973;28;20041;-83
2021/05/29 05:01:40;;;;;;;7.32;4.70;;;;;;;;;;5038234;28;20034;-84
2021/05/29 05:04:07;;;;;;;7.28;4.70;;;;;;;;;;5029323;28;20478;-83
2021/05/29 05:06:33;;;;;;;6.93;4.90;;;;;;;;;;5029248;28;20025;-83
2021/05/29 05:09:00;;;;;;;9.15;4.82;;;;;;;;;;5029595;28;20030;-83
2021/05/29 05:11:26;;;;;;;7.32;5.10;;;;;;;;;;5031028;28;20148;-83
2021/05/29 05:13:52;;;;;;;9.43;4.53;;;;;;;;;;5037158;28;20018;-83
2021/05/29 05:16:18;;;;;;;9.68;5.07;;;;;;;;;;5028616;28;20099;-84
2021/05/29 05:18:45;;;;;;;8.63;4.72;;;;;;;;;;5035398;28;20013;-83
2021/05/29 05:21:11;;;;;;;7.60;4.43;;;;;;;;;;5031580;28;20075;-83
2021/05/29 05:23:37;;;;;;;7.97;4.65;;;;;;;;;;5040891;28;20025;-83
2021/05/29 05:26:03;;;;;;;8.77;4.75;;;;;;;;;;5045755;28;20070;-83
2021/05/29 05:28:29;;;;;;;6.43;4.68;;;;;;;;;;5036081;28;20036;-83
2021/05/29 05:30:56;;;;;;;9.45;4.85;;;;;;;;;;5041885;28;20070;-83
2021/05/29 05:33:23;;;;;;;5.97;4.47;;;;;;;;;;5038932;28;20025;-83
2021/05/29 05:35:49;;;;;;;6.30;4.53;;;;;;;;;;5040848;28;20029;-83
2021/05/29 05:38:15;;;;;;;7.40;4.63;;;;;;;;;;5035629;28;20053;-84
2021/05/29 05:40:41;;;;;;;6.93;4.00;;;;;;;;;;5036932;28;20043;-83
2021/05/29 05:43:07;;;;;;;7.05;4.05;;;;;;;;;;5036399;28;20057;-84
2021/05/29 05:45:34;;;;;;;5.63;3.65;;;;;;;;;;5033183;28;20026;-83
2021/05/29 05:48:00;;;;;;;7.22;3.60;;;;;;;;;;5031833;28;20100;-84
2021/05/29 05:50:26;;;;;;;6.93;3.35;;;;;;;;;;5039106;28;20430;-84
2021/05/29 05:52:52;;;;;;;6.25;3.40;;;;;;;;;;5036319;28;20025;-84
2021/05/29 05:55:18;;;;;;;5.13;3.35;;;;;;;;;;5037983;28;20025;-83
2021/05/29 05:57:44;;;;;;;6.80;3.58;;;;;;;;;;5032739;28;20025;-84
2021/05/29 06:00:12;;;;;;;6.18;3.35;;;;;;;;;;5032382;28;20022;-84
2021/05/29 06:02:38;;;;;;;7.57;3.47;;;;;;;;;;5031879;28;20024;-84
2021/05/29 06:05:04;;;;;;;6.18;3.05;;;;;;;;;;5034773;28;20072;-84
2021/05/29 06:07:31;;;;;;;5.25;3.40;;;;;;;;;;5036004;28;20021;-84
2021/05/29 06:09:57;;;;;;;6.13;3.55;;;;;;;;;;5031403;28;20077;-84
2021/05/29 06:12:23;;;;;;;5.60;3.70;;;;;;;;;;5033515;28;20032;-83
2021/05/29 06:20:19;;;;;;;5.05;3.20;;;;;;;;;;5017141;28;20033;-84
2021/05/29 06:22:44;;;;;;;4.93;3.30;;;;;;;;;;5031169;28;20038;-84
2021/05/29 06:25:15;;;;;;;6.57;3.65;;;;;;;;;;5021930;28;20045;-83
2021/05/29 06:27:41;;;;;;;6.60;3.58;;;;;;;;;;5029605;28;20030;-84
2021/05/29 06:30:08;;;;;;;5.30;3.00;;;;;;;;;;5022138;28;20116;-84
2021/05/29 06:32:35;;;;;;;5.93;3.47;;;;;;;;;;5032333;28;20030;-84
2021/05/29 06:35:01;;;;;;;6.78;3.25;;;;;;;;;;5030184;28;20489;-83
2021/05/29 06:37:27;;;;;;;5.38;3.50;;;;;;;;;;5039809;28;20029;-84
2021/05/29 06:39:53;;;;;;;6.20;3.38;;;;;;;;;;5032632;28;20037;-84
2021/05/29 06:42:19;;;;;;;5.47;3.17;;;;;;;;;;5035921;28;20037;-84
2021/05/29 06:44:45;;;;;;;6.25;3.40;;;;;;;;;;5030910;28;20509;-84
2021/05/29 06:47:11;;;;;;;9.20;3.15;;;;;;;;;;5029889;28;20087;-84
2021/05/29 06:49:39;;;;;;;7.53;3.25;;;;;;;;;;5027612;28;20058;-84
2021/05/29 06:52:09;;;;;;;6.10;3.20;;;;;;;;;;5033553;28;20048;-83
2021/05/29 06:59:59;;;;;;;7.60;3.20;;;;;;;;;;5032877;28;20477;-84
2021/05/29 07:02:25;;;;;;;4.45;2.95;;;;;;;;;;5030087;28;20120;-84
2021/05/29 07:04:51;;;;;;;7.18;3.25;;;;;;;;;;5034879;28;20018;-84
2021/05/29 07:07:18;;;;;;;6.82;3.20;;;;;;;;;;5032282;28;20018;-84
2021/05/29 07:09:44;;;;;;;5.28;3.30;;;;;;;;;;5029710;28;20046;-84
2021/05/29 07:12:10;;;;;;;4.75;2.85;;;;;;;;;;5029525;28;20034;-84
2021/05/29 07:14:36;;;;;;;4.72;3.05;;;;;;;;;;5031590;28;20043;-84
2021/05/29 07:17:04;;;;;;;7.93;3.00;;;;;;;;;;5033755;28;20096;-84
2021/05/29 07:19:30;;;;;;;6.63;3.40;;;;;;;;;;5029179;28;20083;-85
2021/05/29 07:21:56;;;;;;;6.68;3.10;;;;;;;;;;5039502;28;20057;-84
2021/05/29 07:24:22;;;;;;;6.72;2.80;;;;;;;;;;5035973;28;20033;-84
2021/05/29 07:26:49;;;;;;;4.60;3.03;;;;;;;;;;5033492;28;20026;-84
2021/05/29 07:29:16;;;;;;;7.70;3.10;;;;;;;;;;5029791;28;20022;-84
2021/05/29 07:31:43;;;;;;;4.03;2.90;;;;;;;;;;5027483;28;20030;-84
2021/05/29 07:34:09;;;;;;;5.50;3.05;;;;;;;;;;5028492;28;20031;-84
2021/05/29 07:36:35;;;;;;;3.33;2.63;;;;;;;;;;5030569;28;20043;-85
2021/05/29 07:39:01;;;;;;;4.88;3.13;;;;;;;;;;5030879;28;20025;-85
2021/05/29 07:41:27;;;;;;;6.47;3.25;;;;;;;;;;5030053;28;20052;-84
2021/05/29 07:43:53;;;;;;;6.35;3.28;;;;;;;;;;5032304;28;20029;-84
2021/05/29 07:46:19;;;;;;;5.25;3.08;;;;;;;;;;5030001;28;20014;-84
2021/05/29 07:48:45;;;;;;;7.93;3.35;;;;;;;;;;5031097;28;20036;-84
2021/05/29 07:51:12;;;;;;;6.95;3.10;;;;;;;;;;5029171;28;20033;-84
2021/05/29 07:53:42;;;;;;;4.18;2.88;;;;;;;;;;5029009;28;20026;-84
2021/05/29 07:56:11;;;;;;;6.25;3.08;;;;;;;;;;5031380;28;20150;-84
2021/05/29 07:58:41;;;;;;;4.13;2.95;;;;;;;;;;5032654;28;20022;-84
2021/05/29 08:01:07;;;;;;;6.05;2.92;;;;;;;;;;5026488;28;20041;-84
2021/05/29 08:03:35;;;;;;;6.30;3.20;;;;;;;;;;5030782;28;20358;-84
2021/05/29 08:06:08;;;;;;;7.07;3.30;;;;;;;;;;5036897;28;20041;-84
2021/05/29 08:08:34;;;;;;;4.97;2.88;;;;;;;;;;5031422;28;20036;-84
2021/05/29 08:11:03;;;;;;;6.65;3.60;;;;;;;;;;5041480;28;20030;-84
2021/05/29 08:13:29;;;;;;;5.82;3.38;;;;;;;;;;5039908;28;20488;-84
2021/05/29 08:15:57;;;;;;;8.00;3.10;;;;;;;;;;5029513;28;20025;-84
2021/05/29 08:18:23;;;;;;;;;;;;;;;;;;5032677;28;20414;-82
2021/05/29 08:20:51;;;;;;;5.70;3.08;;;;;;;;;;5035933;28;20350;-84
2021/05/29 08:23:19;;;;;;;10.52;3.65;;;;;;;;;;5027504;28;20037;-82
2021/05/29 08:25:46;;;;;;;;;;;;;;;;;;5031359;28;20026;-82
2021/05/29 08:28:13;;;;;;;7.35;3.90;;;;;;;;;;5028580;28;19924;-82
2021/05/29 08:30:40;;;;;;;6.47;3.50;;;;;;;;;;5023636;28;20021;-82
2021/05/29 08:33:07;;;;;;;5.70;3.72;;;;;;;;;;5026816;28;20080;-81
2021/05/29 08:35:35;;;;;;;9.60;5.10;;;;;;;;;;5023982;28;20017;-81
2021/05/29 08:38:02;;;;;;;10.18;4.38;;;;;;;;;;5029945;28;20022;-82
2021/05/29 08:40:29;;;;;;;9.38;4.53;;;;;;;;;;5031624;28;20010;-80
2021/05/29 08:42:57;;;;;;;7.68;4.30;;;;;;;;;;5031407;28;20040;-81
2021/05/29 08:45:23;;;;;;;;;;;;;;;;;;5030799;28;20022;-82
2021/05/29 08:47:50;;;;;;;12.88;8.43;;;;;;;;;;5026267;28;20550;-82
2021/05/29 08:50:17;;;;;;;12.93;5.70;;;;;;;;;;5028007;28;20022;-81
2021/05/29 08:52:44;;;;;;;13.25;6.20;;;;;;;;;;5046975;28;20025;-81
2021/05/29 08:55:13;;;;;;;11.77;6.53;;;;;;;;;;5028371;28;20032;-82
2021/05/29 08:57:40;;;;;;;10.70;7.25;;;;;;;;;;5024358;28;20266;-82
2021/05/29 09:00:07;;;;;;;14.93;8.60;;;;;;;;;;5026201;28;20083;-82
2021/05/29 09:02:34;;;;;;;11.07;7.00;;;;;;;;;;5026925;28;20322;-81
2021/05/29 09:05:12;;;;;;;11.73;6.82;;;;;;;;;;5028352;28;20021;-82
2021/05/29 09:07:39;;;;;;;13.55;8.35;;;;;;;;;;5028064;28;20079;-81
2021/05/29 09:10:24;;;;;;;12.02;6.80;;;;;;;;;;5027809;28;20296;-83
2021/05/29 09:13:03;;;;;;;10.80;7.20;;;;;;;;;;5026278;28;20065;-83
2021/05/29 09:15:47;;;;;;;13.57;7.10;;;;;;;;;;5028164;28;20156;-82
2021/05/29 09:18:33;;;;;;;10.40;7.78;;;;;;;;;;5033211;28;20104;-82
2021/05/29 09:21:18;;;;;;;10.98;6.90;;;;;;;;;;5027766;28;20065;-83
2021/05/29 09:23:45;;;;;;;11.07;6.20;;;;;;;;;;5030119;28;20108;-83
2021/05/29 09:26:11;;;;;;;11.27;6.32;;;;;;;;;;5028208;28;20164;-85
2021/05/29 09:28:38;;;;;;;10.52;5.90;;;;;;;;;;5031639;28;20021;-84
2021/05/29 09:31:04;;;;;;;13.90;7.40;;;;;;;;;;5027893;28;20024;-87
2021/05/29 09:33:35;;;;;;;9.70;6.22;;;;;;;;;;5035594;28;20117;-85
2021/05/29 09:36:01;;;;;;;12.30;6.60;;;;;;;;;;5028195;28;20028;-83
2021/05/29 09:38:36;;;;;;;11.05;6.00;;;;;;;;;;5027227;28;20445;-83
2021/05/29 09:41:02;;;;;;;10.38;5.40;;;;;;;;;;5028841;28;20033;-83
2021/05/29 09:43:28;;;;;;;11.23;5.93;;;;;;;;;;5024867;28;20109;-83
2021/05/29 09:46:02;;;;;;;9.40;5.47;;;;;;;;;;5025226;28;20108;-83
2021/05/29 09:48:29;;;;;;;11.52;4.88;;;;;;;;;;5033909;28;20053;-83
2021/05/29 09:51:11;;;;;;;15.57;5.65;;;;;;;;;;5034577;28;20017;-82
2021/05/29 09:53:39;;;;;;;12.82;5.30;;;;;;;;;;5024782;28;20103;-82
2021/05/29 09:56:05;;;;;;;11.80;5.88;;;;;;;;;;5030157;28;20421;-82
2021/05/29 09:58:50;;;;;;;11.77;6.20;;;;;;;;;;5032956;28;20030;-83
2021/05/29 10:01:41;;;;;;;12.35;6.18;;;;;;;;;;5029401;28;20116;-81
2021/05/29 10:04:07;;;;;;;12.00;6.75;;;;;;;;;;5023499;28;20056;-81
2021/05/29 10:06:33;;;;;;;14.25;7.43;;;;;;;;;;5028906;28;20052;-81
2021/05/29 10:08:59;;;;;;;12.73;6.55;;;;;;;;;;5031375;28;20390;-81
2021/05/29 10:11:27;;;;;;;10.90;6.38;;;;;;;;;;5031111;28;20032;-80
2021/05/29 10:13:52;;;;;;;13.07;10.73;;;;;;;;;;5034757;28;20014;-80
2021/05/29 10:16:19;;;;;;;8.30;5.20;;;;;;;;;;5035170;28;20038;-83
2021/05/29 10:18:49;;;;;;;10.95;6.55;;;;;;;;;;5032442;28;20022;-81
2021/05/29 10:21:15;;;;;;;10.40;6.85;;;;;;;;;;5032552;28;20569;-81
2021/05/29 10:23:45;;;;;;;10.85;6.93;;;;;;;;;;5031087;28;20025;-82
2021/05/29 10:26:11;;;;;;;11.75;7.18;;;;;;;;;;5029405;28;20087;-81
2021/05/29 10:28:37;;;;;;;14.45;9.75;;;;;;;;;;5033324;28;20378;-83
2021/05/29 10:31:03;;;;;;;15.43;9.98;;;;;;;;;;5030642;28;20080;-82
2021/05/29 10:33:39;;;;;;;23.05;13.77;;;;;;;;;;5030471;28;20425;-82
2021/05/29 10:36:06;;;;;;;11.57;7.03;;;;;;;;;;5031114;28;20160;-82
2021/05/29 10:38:42;;;;;;;10.50;6.72;;;;;;;;;;5034644;28;20036;-82
2021/05/29 10:41:08;;;;;;;10.40;6.60;;;;;;;;;;5039810;28;20051;-82
2021/05/29 10:43:36;;;;;;;14.43;8.30;;;;;;;;;;5035700;28;20033;-82
2021/05/29 10:46:06;;;;;;;13.57;7.53;;;;;;;;;;5030868;28;20355;-82
2021/05/29 10:48:42;;;;;;;14.10;7.10;;;;;;;;;;5030709;28;20434;-82
2021/05/29 10:51:12;;;;;;;14.32;7.20;;;;;;;;;;5033743;28;20044;-82
2021/05/29 10:53:45;;;;;;;12.55;6.20;;;;;;;;;;5031283;28;20025;-82
2021/05/29 10:56:13;;;;;;;19.75;8.93;;;;;;;;;;5039971;28;20041;-82
2021/05/29 10:58:55;;;;;;;10.52;6.20;;;;;;;;;;5028809;28;20029;-82
2021/05/29 11:01:21;;;;;;;11.18;6.20;;;;;;;;;;5038134;28;20132;-82
2021/05/29 11:03:48;;;;;;;11.15;6.40;;;;;;;;;;5026613;28;20025;-82
2021/05/29 11:06:30;;;;;;;11.45;5.75;;;;;;;;;;5032027;28;20382;-82
2021/05/29 11:09:00;;;;;;;12.02;5.30;;;;;;;;;;5034507;28;20077;-82
2021/05/29 11:11:48;;;;;;;8.00;4.90;;;;;;;;;;5033428;28;20111;-82
2021/05/29 11:14:40;;;;;;;7.90;5.03;;;;;;;;;;5033860;28;20037;-83
2021/05/29 11:17:06;;;;;;;10.48;4.80;;;;;;;;;;5006923;28;20033;-82
2021/05/29 11:19:33;;;;;;;8.20;4.60;;;;;;;;;;5030369;28;20033;-82
2021/05/29 11:22:06;;;;;;;9.38;4.70;;;;;;;;;;5029156;28;20039;-82
2021/05/29 11:24:38;;;;;;;12.57;5.35;;;;;;;;;;5035939;28;20533;-82
2021/05/29 11:27:05;;;;;;;9.68;5.50;;;;;;;;;;5032635;28;20107;-82
2021/05/29 11:29:50;;;;;;;10.50;5.20;;;;;;;;;;5030544;28;20474;-82
2021/05/29 11:32:33;;;;;;;10.52;5.20;;;;;;;;;;5031045;28;20379;-82
2021/05/29 11:34:59;;;;;;;9.80;5.20;;;;;;;;;;5032763;28;20033;-82
2021/05/29 11:37:25;;;;;;;7.82;4.68;;;;;;;;;;5035340;28;20029;-82
2021/05/29 11:39:55;;;;;;;10.52;5.00;;;;;;;;;;5030872;28;20028;-82
2021/05/29 11:42:21;;;;;;;11.60;5.05;;;;;;;;;;5028739;28;20235;-82
2021/05/29 11:44:47;;;;;;;12.65;5.47;;;;;;;;;;5028879;28;20025;-82
2021/05/29 11:47:14;;;;;;;9.18;4.95;;;;;;;;;;5030690;28;20049;-82
2021/05/29 11:49:40;;;;;;;9.18;4.57;;;;;;;;;;5034310;28;20023;-82
2021/05/29 11:52:06;;;;;;;9.02;4.80;;;;;;;;;;5030074;28;20107;-82
2021/05/29 11:54:36;;;;;;;11.35;4.80;;;;;;;;;;5029906;28;20036;-82
2021/05/29 11:57:02;;;;;;;11.63;5.22;;;;;;;;;;5029449;28;20355;-82
2021/05/29 11:59:28;;;;;;;8.60;5.03;;;;;;;;;;5033844;28;20021;-81
2021/05/29 12:01:55;;;;;;;8.25;5.10;;;;;;;;;;5037863;28;20493;-82
2021/05/29 12:04:22;;;;;;;8.25;4.93;;;;;;;;;;5031497;28;20017;-82
2021/05/29 12:06:54;;;;;;;8.77;4.90;;;;;;;;;;5024109;28;20021;-82
2021/05/29 12:09:20;;;;;;;7.60;4.43;;;;;;;;;;5030254;28;20044;-82
2021/05/29 12:11:49;;;;;;;8.52;4.63;;;;;;;;;;5031024;28;20033;-82
2021/05/29 12:14:16;;;;;;;11.77;5.10;;;;;;;;;;5034871;28;20471;-81
2021/05/29 12:16:51;;;;;;;6.60;4.90;;;;;;;;;;5035074;28;20025;-82
2021/05/29 12:19:26;;;;;;;12.45;4.80;;;;;;;;;;5030610;28;20075;-82
2021/05/29 12:21:55;;;;;;;7.22;4.68;;;;;;;;;;5028623;28;20034;-82
2021/05/29 12:24:22;;;;;;;12.05;4.97;;;;;;;;;;5027736;28;20104;-82
2021/05/29 12:26:49;;;;;;;8.90;4.88;;;;;;;;;;5029088;28;20030;-84
2021/05/29 12:29:19;;;;;;;11.65;5.10;;;;;;;;;;5030373;28;20105;-82
2021/05/29 12:31:46;;;;;;;8.07;5.03;;;;;;;;;;5030931;28;20616;-82
2021/05/29 12:34:12;;;;;;;9.27;4.80;;;;;;;;;;5031289;28;20037;-82
2021/05/29 12:36:58;;;;;;;11.77;5.07;;;;;;;;;;5029180;28;20063;-82
2021/05/29 12:39:42;;;;;;;9.55;5.43;;;;;;;;;;5032726;28;20425;-82
2021/05/29 12:42:18;;;;;;;8.52;4.70;;;;;;;;;;5025502;28;20105;-80
2021/05/29 12:44:51;;;;;;;10.85;4.78;;;;;;;;;;5034214;28;20025;-82
2021/05/29 12:47:21;;;;;;;10.80;4.80;;;;;;;;;;5030632;28;20025;-82
2021/05/29 12:49:47;;;;;;;9.23;4.90;;;;;;;;;;5030697;28;20033;-82
2021/05/29 12:52:22;;;;;;;9.07;5.22;;;;;;;;;;5031534;28;20029;-81
2021/05/29 12:54:48;;;;;;;7.60;4.43;;;;;;;;;;5032428;28;20033;-82
2021/05/29 12:57:15;;;;;;;8.10;4.30;;;;;;;;;;5030100;28;20021;-82
2021/05/29 12:59:41;;;;;;;8.18;4.82;;;;;;;;;;5030347;28;20390;-82
2021/05/29 13:07:31;;;;;;;8.68;4.45;;;;;;;;;;5031174;28;20518;-81
2021/05/29 13:12:41;;;;;;;10.88;5.30;;;;;;;;;;5031775;28;20026;-81
2021/05/29 13:15:17;;;;;;;9.55;4.68;;;;;;;;;;5028461;28;20026;-82
2021/05/29 13:17:43;;;;;;;8.20;4.60;;;;;;;;;;5030503;28;20017;-82
2021/05/29 13:20:17;;;;;;;8.10;4.28;;;;;;;;;;5033539;28;20018;-82
2021/05/29 13:22:44;;;;;;;8.13;4.47;;;;;;;;;;5033625;28;20056;-82
2021/05/29 13:25:11;;;;;;;9.55;4.20;;;;;;;;;;5028417;28;20175;-82
2021/05/29 13:27:38;;;;;;;8.93;4.53;;;;;;;;;;5035508;28;20033;-81
2021/05/29 13:30:09;;;;;;;7.50;4.50;;;;;;;;;;5035581;28;20026;-82
2021/05/29 13:32:36;;;;;;;6.95;4.30;;;;;;;;;;5028569;28;20018;-81
2021/05/29 13:35:03;;;;;;;7.85;4.20;;;;;;;;;;5036106;28;20440;-81
2021/05/29 13:37:29;;;;;;;8.68;4.30;;;;;;;;;;5034570;28;20025;-82
2021/05/29 13:39:55;;;;;;;8.43;4.28;;;;;;;;;;5032658;28;20439;-81
2021/05/29 13:42:21;;;;;;;19.38;5.38;;;;;;;;;;5026005;28;20064;-82
2021/05/29 13:44:47;;;;;;;10.95;4.22;;;;;;;;;;5030153;28;20028;-82
2021/05/29 13:47:13;;;;;;;8.27;4.07;;;;;;;;;;5032298;28;20029;-82
2021/05/29 13:49:40;;;;;;;9.20;4.07;;;;;;;;;;5037549;28;20017;-81
2021/05/29 13:52:06;;;;;;;7.93;3.90;;;;;;;;;;5036891;28;20037;-82
2021/05/29 13:54:32;;;;;;;8.85;4.22;;;;;;;;;;5037466;28;20134;-82
2021/05/29 13:56:58;;;;;;;8.43;4.28;;;;;;;;;;5027097;28;20471;-81
2021/05/29 13:59:24;;;;;;;9.32;4.20;;;;;;;;;;5032393;28;20052;-82
2021/05/29 14:01:50;;;;;;;10.15;4.40;;;;;;;;;;5035355;28;20037;-81
2021/05/29 14:04:17;;;;;;;11.60;5.07;;;;;;;;;;5032124;28;20441;-82
2021/05/29 14:06:44;;;;;;;9.18;4.95;;;;;;;;;;5030928;28;20013;-81
2021/05/29 14:09:10;;;;;;;7.10;4.28;;;;;;;;;;5034120;28;20049;-81
2021/05/29 14:11:40;;;;;;;9.55;4.82;;;;;;;;;;5030660;28;20026;-81
2021/05/29 14:14:06;;;;;;;6.90;4.38;;;;;;;;;;5038954;28;20505;-81
2021/05/29 14:16:33;;;;;;;8.18;4.65;;;;;;;;;;5032916;28;20033;-81
2021/05/29 14:18:59;;;;;;;6.97;4.10;;;;;;;;;;5030947;28;20382;-81
2021/05/29 14:21:25;;;;;;;8.35;4.20;;;;;;;;;;5029773;28;20029;-81
2021/05/29 14:23:52;;;;;;;11.98;4.53;;;;;;;;;;5030993;28;20021;-83
2021/05/29 14:26:18;;;;;;;7.55;4.28;;;;;;;;;;5027035;28;20394;-81
2021/05/29 14:28:44;;;;;;;10.25;4.15;;;;;;;;;;5034300;28;20057;-81
2021/05/29 14:31:10;;;;;;;7.72;4.40;;;;;;;;;;5034109;28;20030;-80
2021/05/29 14:33:37;;;;;;;12.60;4.25;;;;;;;;;;5036220;28;20018;-81
2021/05/29 14:36:04;;;;;;;8.23;4.30;;;;;;;;;;5027035;28;20513;-81
2021/05/29 14:38:30;;;;;;;6.68;3.92;;;;;;;;;;5031527;28;20080;-82
2021/05/29 14:40:56;;;;;;;10.63;4.07;;;;;;;;;;5034702;28;20124;-83
2021/05/29 14:43:22;;;;;;;5.63;3.78;;;;;;;;;;5030961;28;20029;-82
2021/05/29 14:45:50;;;;;;;6.28;4.03;;;;;;;;;;5033876;28;20029;-81
2021/05/29 14:48:16;;;;;;;7.00;3.83;;;;;;;;;;5034552;28;20350;-81
2021/05/29 14:50:50;;;;;;;9.30;3.78;;;;;;;;;;5039658;28;20063;-80
2021/05/29 14:53:20;;;;;;;9.13;3.90;;;;;;;;;;5027407;28;20033;-81
2021/05/29 14:55:46;;;;;;;6.82;3.85;;;;;;;;;;5032532;28;20033;-81
2021/05/29 14:58:12;;;;;;;7.00;3.80;;;;;;;;;;5029919;28;20033;-80
2021/05/29 15:00:39;;;;;;;6.55;3.67;;;;;;;;;;5032138;28;20025;-81
2021/05/29 15:03:06;;;;;;;10.48;4.30;;;;;;;;;;5031070;28;20049;-81
2021/05/29 15:05:32;;;;;;;;;;;;;;;;;;5034636;28;20037;-80